Bonnybridge, United Kingdom
Current Conditions -  °F | °C
As of 6:20 PM on Friday 28 Nov 2014 (Local Time) from EGPH Reporting Station
Broken Clouds Broken Clouds  
Wind Chill: 45°   Ceiling: 1800
Heat Index: 48°   Visibility: 6mi
Dew Point: 48°   Wind: 7mph
Humidity: 100%   Direction: 60°ENE
Pressure: 29.85"   Gusts: NA
Location:  56°N, 3.89°W
Report Text: EGPH 281820Z 06006KT 9999 BKN018 09/09 Q1011
Loading
Personal Weather Stations






























Interactive Weather Map New forecast layout! Learn more

10-Day Weather Forecast

Advertisements
Track Severe Weather on mobile